createdAt,value
2017-09-26T00:01:08.062Z,21.80
2017-09-26T00:03:37.192Z,22.53
2017-09-26T00:06:06.437Z,21.20
2017-09-26T00:08:35.620Z,24.23
2017-09-26T00:11:04.791Z,22.90
2017-09-26T00:13:33.220Z,21.43
2017-09-26T00:16:02.344Z,22.60
2017-09-26T00:18:30.759Z,25.77
2017-09-26T00:20:59.108Z,26.57
2017-09-26T00:23:27.403Z,26.20
2017-09-26T00:25:55.695Z,28.57
2017-09-26T00:28:24.091Z,27.37
2017-09-26T00:30:53.184Z,29.77
2017-09-26T00:33:22.528Z,28.07
2017-09-26T00:35:51.592Z,27.53
2017-09-26T00:38:19.891Z,29.80
2017-09-26T00:40:48.225Z,30.50
2017-09-26T00:43:16.528Z,29.60
2017-09-26T00:45:44.851Z,31.00
2017-09-26T00:48:13.953Z,28.87
2017-09-26T00:50:42.274Z,32.00
2017-09-26T00:53:10.655Z,31.17
2017-09-26T00:55:39.179Z,32.00
2017-09-26T00:58:07.623Z,29.93
2017-09-26T01:00:39.395Z,30.80
2017-09-26T01:03:07.772Z,28.90
2017-09-26T01:05:36.774Z,32.37
2017-09-26T01:08:05.124Z,32.27
2017-09-26T01:10:33.554Z,30.47
2017-09-26T01:13:01.915Z,32.70
2017-09-26T01:15:31.003Z,32.23
2017-09-26T01:17:59.343Z,31.30
2017-09-26T01:20:28.442Z,29.93
2017-09-26T01:22:56.816Z,30.87
2017-09-26T01:25:25.156Z,32.97
2017-09-26T01:27:53.511Z,30.13
2017-09-26T01:30:21.940Z,33.60
2017-09-26T01:32:50.247Z,33.53
2017-09-26T01:35:18.553Z,35.70
2017-09-26T01:37:47.014Z,34.87
2017-09-26T01:40:15.307Z,35.43
2017-09-26T01:42:43.598Z,32.60
2017-09-26T01:45:11.959Z,34.90
2017-09-26T01:47:40.303Z,31.83
2017-09-26T01:50:08.646Z,31.93
2017-09-26T01:52:37.140Z,32.90
2017-09-26T01:55:05.563Z,32.53
2017-09-26T01:57:50.284Z,33.23
2017-09-26T02:00:19.376Z,31.80
2017-09-26T02:02:47.680Z,34.77
2017-09-26T02:05:16.022Z,34.70
2017-09-26T02:07:44.332Z,38.47
2017-09-26T02:10:12.656Z,34.80
2017-09-26T02:12:40.951Z,36.90
2017-09-26T02:15:09.277Z,37.17
2017-09-26T02:17:37.786Z,38.40
2017-09-26T02:20:06.204Z,37.43
2017-09-26T02:22:35.409Z,38.33
2017-09-26T02:25:04.729Z,36.70
2017-09-26T02:27:33.852Z,36.13
2017-09-26T02:30:02.220Z,37.87
2017-09-26T02:32:30.571Z,39.13
2017-09-26T02:34:58.904Z,38.07
2017-09-26T02:37:28.000Z,36.67
2017-09-26T02:39:56.507Z,42.37
2017-09-26T02:42:24.967Z,38.90
2017-09-26T02:44:53.286Z,39.40
2017-09-26T02:47:21.655Z,41.80
2017-09-26T02:49:50.736Z,43.53
2017-09-26T02:52:19.067Z,42.40
2017-09-26T02:54:48.132Z,39.10
2017-09-26T02:57:16.460Z,39.20
2017-09-26T02:59:44.764Z,43.03
2017-09-26T03:02:13.086Z,41.00
2017-09-26T03:04:41.379Z,43.07
2017-09-26T03:07:09.839Z,41.07
2017-09-26T03:09:38.236Z,42.23
2017-09-26T03:12:06.675Z,42.77
2017-09-26T03:14:35.236Z,40.33
2017-09-26T03:17:04.233Z,41.63
2017-09-26T03:19:34.391Z,41.77
2017-09-26T03:22:02.756Z,40.60
2017-09-26T03:24:31.155Z,40.60
2017-09-26T03:26:59.484Z,43.07
2017-09-26T03:29:27.775Z,41.40
2017-09-26T03:31:57.576Z,41.10
2017-09-26T03:34:25.907Z,42.53
2017-09-26T03:36:55.743Z,43.40
2017-09-26T03:39:24.043Z,45.17
2017-09-26T03:41:52.408Z,42.40
2017-09-26T03:44:20.762Z,43.53
2017-09-26T03:46:49.828Z,40.90
2017-09-26T03:49:18.155Z,39.50
2017-09-26T03:51:46.452Z,41.00
2017-09-26T03:54:14.776Z,44.07
2017-09-26T03:56:43.104Z,41.83
2017-09-26T03:59:12.188Z,42.33
2017-09-26T04:01:40.503Z,42.63
2017-09-26T04:04:08.878Z,43.00
2017-09-26T04:06:37.240Z,43.57
2017-09-26T04:09:06.927Z,42.03
2017-09-26T04:11:35.436Z,42.80
2017-09-26T04:14:03.740Z,41.80
2017-09-26T04:16:32.148Z,40.17
2017-09-26T04:19:00.483Z,42.90
2017-09-26T04:21:29.575Z,41.17
2017-09-26T04:23:57.972Z,40.27
2017-09-26T04:26:26.378Z,38.47
2017-09-26T04:28:54.721Z,41.80
2017-09-26T04:31:23.784Z,46.70
2017-09-26T04:33:52.132Z,41.43
2017-09-26T04:36:21.246Z,38.67
2017-09-26T04:38:51.049Z,42.20
2017-09-26T04:41:19.472Z,39.43
2017-09-26T04:43:47.764Z,45.00
2017-09-26T04:46:16.068Z,42.80
2017-09-26T04:48:44.583Z,43.80
2017-09-26T04:51:12.982Z,39.07
2017-09-26T04:53:41.388Z,43.80
2017-09-26T04:56:09.719Z,39.30
2017-09-26T04:58:38.788Z,41.00
2017-09-26T05:01:07.121Z,40.70
2017-09-26T05:03:36.935Z,42.93
2017-09-26T05:06:05.451Z,41.70
2017-09-26T05:08:33.856Z,41.97
2017-09-26T05:11:02.260Z,38.93
2017-09-26T05:13:30.667Z,39.43
2017-09-26T05:16:00.498Z,42.03
2017-09-26T05:18:28.797Z,38.93
2017-09-26T05:20:57.195Z,39.57
2017-09-26T05:23:25.492Z,41.40
2017-09-26T05:25:53.796Z,40.23
2017-09-26T05:28:22.148Z,38.43
2017-09-26T05:30:51.244Z,38.80
2017-09-26T05:33:20.455Z,41.47
2017-09-26T05:35:48.763Z,39.77
2017-09-26T05:38:17.102Z,38.30
2017-09-26T05:40:46.173Z,38.73
2017-09-26T05:43:14.459Z,39.50
2017-09-26T05:45:42.891Z,38.97
2017-09-26T05:48:11.196Z,39.27
2017-09-26T05:50:39.625Z,38.97
2017-09-26T05:53:09.448Z,39.87
2017-09-26T05:55:37.852Z,40.70
2017-09-26T05:58:06.191Z,37.60
2017-09-26T06:00:34.536Z,40.90
2017-09-26T06:03:02.855Z,37.87
2017-09-26T06:05:31.187Z,39.10
2017-09-26T06:08:00.248Z,39.20
2017-09-26T06:10:28.567Z,37.67
2017-09-26T06:12:56.900Z,36.60
2017-09-26T06:15:25.956Z,36.83
2017-09-26T06:17:54.279Z,37.30
2017-09-26T06:20:22.636Z,36.57
2017-09-26T06:22:51.002Z,35.87
2017-09-26T06:25:19.292Z,35.67
2017-09-26T06:27:47.611Z,33.17
2017-09-26T06:30:16.012Z,35.50
2017-09-26T06:32:44.351Z,37.10
2017-09-26T06:35:13.427Z,33.97
2017-09-26T06:37:41.736Z,36.07
2017-09-26T06:40:10.151Z,37.50
2017-09-26T06:42:39.219Z,33.37
2017-09-26T06:45:07.609Z,35.93
2017-09-26T06:47:35.923Z,34.23
2017-09-26T06:50:04.312Z,36.83
2017-09-26T06:52:32.763Z,35.17
2017-09-26T06:55:01.055Z,33.60
2017-09-26T06:57:29.367Z,33.77
2017-09-26T06:59:57.706Z,36.57
2017-09-26T07:02:26.763Z,33.73
2017-09-26T07:04:55.087Z,33.53
2017-09-26T07:07:23.408Z,33.87
2017-09-26T07:09:51.738Z,30.87
2017-09-26T07:12:20.892Z,30.13
2017-09-26T07:14:49.186Z,35.67
2017-09-26T07:17:17.515Z,31.90
2017-09-26T07:19:45.798Z,34.37
2017-09-26T07:22:14.337Z,31.37
2017-09-26T07:24:42.635Z,35.57
2017-09-26T07:27:10.929Z,31.77
2017-09-26T07:29:39.280Z,28.93
2017-09-26T07:32:07.646Z,30.30
2017-09-26T07:34:36.238Z,31.87
2017-09-26T07:37:05.372Z,32.10
2017-09-26T07:39:33.763Z,29.70
2017-09-26T07:42:02.144Z,28.77
2017-09-26T07:44:30.440Z,27.80
2017-09-26T07:46:58.764Z,30.90
2017-09-26T07:49:27.060Z,30.73
2017-09-26T07:51:55.379Z,29.70
2017-09-26T07:54:23.692Z,30.00
2017-09-26T07:56:52.051Z,26.47
2017-09-26T07:59:20.385Z,31.23
2017-09-26T08:01:48.716Z,32.20
2017-09-26T08:04:18.264Z,28.80
2017-09-26T08:06:47.619Z,30.43
2017-09-26T08:09:16.508Z,28.73
2017-09-26T08:11:45.696Z,29.93
2017-09-26T08:14:14.096Z,29.57
2017-09-26T08:16:42.496Z,29.13
2017-09-26T08:19:10.828Z,30.53
2017-09-26T08:21:39.892Z,30.20
2017-09-26T08:24:08.337Z,31.73
2017-09-26T08:26:36.731Z,29.83
2017-09-26T08:29:05.074Z,28.10
2017-09-26T08:31:33.747Z,29.00
2017-09-26T08:34:02.035Z,29.23
2017-09-26T08:36:30.688Z,28.67
2017-09-26T08:38:59.780Z,27.67
2017-09-26T08:41:28.076Z,30.07
2017-09-26T08:43:56.475Z,29.13
2017-09-26T08:46:24.880Z,28.77
2017-09-26T08:48:53.244Z,29.47
2017-09-26T08:51:21.548Z,27.17
2017-09-26T08:53:49.873Z,27.07
2017-09-26T08:56:18.163Z,29.93
2017-09-26T08:58:46.492Z,27.37
2017-09-26T09:01:14.900Z,28.80
2017-09-26T09:03:43.243Z,27.10
2017-09-26T09:06:12.300Z,29.80
2017-09-26T09:08:40.591Z,28.73
2017-09-26T09:11:09.027Z,31.00
2017-09-26T09:13:37.459Z,30.97
2017-09-26T09:16:06.551Z,31.30
2017-09-26T09:18:34.882Z,31.87
2017-09-26T09:21:04.780Z,31.87
2017-09-26T09:23:33.417Z,31.90
2017-09-26T09:26:01.743Z,31.10
2017-09-26T09:28:30.840Z,31.43
2017-09-26T09:30:59.183Z,31.57
2017-09-26T09:33:27.472Z,33.47
2017-09-26T09:35:55.767Z,31.97
2017-09-26T09:38:24.859Z,34.10
2017-09-26T09:40:53.146Z,33.90
2017-09-26T09:43:21.671Z,30.13
2017-09-26T09:45:49.964Z,31.97
2017-09-26T09:48:18.260Z,35.70
2017-09-26T09:50:46.767Z,35.03
2017-09-26T09:53:15.051Z,33.80
2017-09-26T09:55:43.347Z,36.47
2017-09-26T09:58:11.771Z,33.20
2017-09-26T10:00:40.068Z,31.47
2017-09-26T10:03:08.381Z,33.77
2017-09-26T10:05:36.730Z,31.77
2017-09-26T10:08:05.141Z,33.13
2017-09-26T10:10:33.520Z,30.10
2017-09-26T10:13:02.620Z,35.20
2017-09-26T10:15:31.012Z,32.87
2017-09-26T10:17:59.343Z,33.57
2017-09-26T10:20:28.403Z,33.23
2017-09-26T10:22:56.736Z,32.67
2017-09-26T10:25:25.145Z,32.73
2017-09-26T10:27:53.463Z,33.57
2017-09-26T10:30:21.754Z,36.10
2017-09-26T10:32:50.144Z,33.07
2017-09-26T10:35:18.439Z,31.93
2017-09-26T10:37:46.767Z,32.47
2017-09-26T10:40:15.871Z,34.33
2017-09-26T10:42:44.163Z,34.37
2017-09-26T10:45:12.493Z,32.10
2017-09-26T10:47:40.878Z,33.47
2017-09-26T10:50:09.168Z,34.13
2017-09-26T10:52:37.508Z,30.37
2017-09-26T10:55:05.829Z,31.30
2017-09-26T10:57:34.435Z,32.70
2017-09-26T11:00:02.796Z,30.20
2017-09-26T11:02:31.201Z,32.20
2017-09-26T11:04:59.599Z,35.40
2017-09-26T11:07:28.003Z,32.63
2017-09-26T11:09:56.304Z,30.53
2017-09-26T11:12:24.629Z,33.00
2017-09-26T11:14:52.956Z,33.50
2017-09-26T11:17:22.063Z,30.27
2017-09-26T11:19:51.154Z,31.63
2017-09-26T11:22:19.448Z,31.40
2017-09-26T11:24:47.776Z,33.97
2017-09-26T11:27:16.100Z,32.00
2017-09-26T11:29:45.279Z,32.50
2017-09-26T11:32:13.613Z,28.70
2017-09-26T11:34:41.903Z,33.73
2017-09-26T11:37:11.724Z,30.57
2017-09-26T11:39:40.051Z,28.40
2017-09-26T11:42:08.356Z,28.20
2017-09-26T11:44:36.769Z,29.93
2017-09-26T11:47:05.128Z,30.13
2017-09-26T11:49:33.607Z,29.77
2017-09-26T11:52:01.911Z,30.60
2017-09-26T11:54:30.236Z,27.60
2017-09-26T11:56:58.648Z,28.33
2017-09-26T11:59:26.971Z,29.03
2017-09-26T12:01:55.296Z,28.80
2017-09-26T12:04:24.346Z,28.80
2017-09-26T12:06:52.781Z,30.60
2017-09-26T12:09:21.082Z,28.97
2017-09-26T12:11:50.920Z,29.30
2017-09-26T12:14:19.320Z,27.13
2017-09-26T12:16:47.654Z,27.50
2017-09-26T12:19:16.729Z,26.53
2017-09-26T12:21:45.011Z,26.37
2017-09-26T12:24:13.442Z,28.90
2017-09-26T12:26:41.736Z,25.07
2017-09-26T12:29:10.059Z,27.03
2017-09-26T12:31:38.423Z,24.73
2017-09-26T12:34:06.735Z,24.07
2017-09-26T12:36:35.079Z,27.23
2017-09-26T12:39:03.376Z,24.47
2017-09-26T12:41:32.485Z,24.70
2017-09-26T12:44:00.876Z,28.27
2017-09-26T12:46:29.387Z,25.37
2017-09-26T12:48:58.611Z,25.07
2017-09-26T12:51:26.908Z,24.80
2017-09-26T12:53:55.236Z,24.93
2017-09-26T12:56:23.532Z,25.27
2017-09-26T12:58:51.870Z,24.43
2017-09-26T13:01:20.195Z,26.17
2017-09-26T13:03:48.487Z,26.60
2017-09-26T13:06:16.831Z,26.57
2017-09-26T13:08:45.128Z,25.63
2017-09-26T13:11:13.535Z,22.90
2017-09-26T13:13:41.942Z,29.00
2017-09-26T13:16:10.264Z,25.77
2017-09-26T13:18:38.747Z,23.53
2017-09-26T13:21:07.056Z,24.30
2017-09-26T13:23:36.913Z,25.00
2017-09-26T13:26:05.268Z,26.90
2017-09-26T13:28:33.620Z,26.23
2017-09-26T13:31:02.706Z,24.70
2017-09-26T13:33:31.052Z,25.37
2017-09-26T13:36:00.135Z,24.33
2017-09-26T13:38:28.544Z,23.60
2017-09-26T13:40:56.944Z,28.60
2017-09-26T13:43:25.339Z,25.23
2017-09-26T13:45:53.643Z,24.57
2017-09-26T13:48:21.975Z,24.33
2017-09-26T13:50:50.278Z,25.43
2017-09-26T13:53:19.352Z,24.43
2017-09-26T13:55:47.680Z,25.07
2017-09-26T13:58:15.992Z,23.07
2017-09-26T14:00:44.316Z,23.50
2017-09-26T14:03:13.499Z,27.03
2017-09-26T14:05:41.810Z,24.80
2017-09-26T14:08:10.132Z,26.97
2017-09-26T14:10:39.225Z,24.00
2017-09-26T14:13:07.639Z,26.37
2017-09-26T14:15:35.980Z,23.03
2017-09-26T14:18:04.740Z,23.53
2017-09-26T14:20:33.028Z,24.40
2017-09-26T14:23:02.168Z,25.30
2017-09-26T14:25:30.455Z,24.83
2017-09-26T14:27:58.787Z,26.20
2017-09-26T14:30:27.076Z,23.93
2017-09-26T14:32:55.407Z,25.93
2017-09-26T14:35:24.504Z,25.43
2017-09-26T14:37:52.820Z,24.47
2017-09-26T14:40:21.923Z,26.40
2017-09-26T14:42:50.311Z,26.10
2017-09-26T14:45:18.678Z,24.07
2017-09-26T14:47:47.015Z,26.33
2017-09-26T14:50:15.335Z,24.40
2017-09-26T14:52:45.144Z,24.87
2017-09-26T14:55:13.472Z,25.20
2017-09-26T14:57:41.771Z,25.73
2017-09-26T15:00:10.101Z,24.97
2017-09-26T15:02:39.158Z,24.93
2017-09-26T15:05:07.496Z,25.93
2017-09-26T15:07:36.003Z,24.40
2017-09-26T15:10:04.341Z,25.23
2017-09-26T15:12:34.087Z,25.13
2017-09-26T15:15:02.441Z,27.47
2017-09-26T15:17:30.730Z,28.00
2017-09-26T15:19:59.077Z,25.80
2017-09-26T15:22:28.141Z,26.67
2017-09-26T15:24:56.440Z,28.33
2017-09-26T15:27:24.769Z,27.50
2017-09-26T15:29:53.180Z,27.43
2017-09-26T15:32:21.519Z,25.40
2017-09-26T15:34:49.816Z,26.10
2017-09-26T15:37:18.908Z,26.80
2017-09-26T15:39:47.206Z,28.63
2017-09-26T15:42:15.601Z,26.47
2017-09-26T15:44:44.015Z,27.83
2017-09-26T15:47:12.312Z,26.70
2017-09-26T15:49:40.640Z,26.70
2017-09-26T15:52:09.731Z,26.07
2017-09-26T15:54:38.032Z,30.13
2017-09-26T15:57:06.372Z,25.13
2017-09-26T15:59:35.492Z,26.63
2017-09-26T16:02:05.364Z,25.80
2017-09-26T16:04:33.724Z,28.13
2017-09-26T16:07:02.787Z,27.50
2017-09-26T16:09:31.081Z,25.40
2017-09-26T16:11:59.408Z,27.63
2017-09-26T16:14:27.732Z,27.97
2017-09-26T16:16:56.804Z,27.50
2017-09-26T16:19:25.243Z,24.27
2017-09-26T16:21:53.648Z,28.47
2017-09-26T16:24:21.979Z,28.00
2017-09-26T16:26:51.101Z,27.90
2017-09-26T16:29:20.200Z,27.10
2017-09-26T16:31:48.596Z,30.33
2017-09-26T16:34:17.104Z,26.67
2017-09-26T16:36:45.408Z,27.90
2017-09-26T16:39:13.713Z,29.00
2017-09-26T16:41:42.039Z,28.43
2017-09-26T16:44:11.332Z,29.03
2017-09-26T16:46:39.632Z,28.17
2017-09-26T16:49:07.923Z,27.67
2017-09-26T16:51:36.262Z,29.30
2017-09-26T16:54:05.364Z,29.17
2017-09-26T16:56:33.664Z,27.87
2017-09-26T16:59:02.159Z,30.10
2017-09-26T17:01:30.451Z,29.40
2017-09-26T17:03:58.744Z,28.70
2017-09-26T17:06:27.170Z,28.47
2017-09-26T17:08:55.464Z,26.63
2017-09-26T17:11:23.812Z,28.93
2017-09-26T17:13:52.927Z,28.47
2017-09-26T17:16:22.040Z,28.97
2017-09-26T17:18:51.152Z,29.30
2017-09-26T17:21:19.551Z,31.40
2017-09-26T17:23:47.843Z,30.67
2017-09-26T17:26:16.174Z,31.90
2017-09-26T17:28:44.484Z,27.33
2017-09-26T17:31:13.667Z,26.40
2017-09-26T17:33:41.960Z,28.17
2017-09-26T17:36:10.280Z,26.67
2017-09-26T17:38:38.783Z,26.27
2017-09-26T17:41:07.088Z,28.40
2017-09-26T17:43:35.399Z,25.40
2017-09-26T17:46:03.775Z,26.10
2017-09-26T17:48:32.087Z,27.30
2017-09-26T17:51:00.379Z,28.27
2017-09-26T17:53:28.712Z,30.60
2017-09-26T17:55:57.008Z,25.90
2017-09-26T17:58:25.308Z,32.50
2017-09-26T18:00:53.699Z,26.67
2017-09-26T18:03:22.039Z,26.67
2017-09-26T18:05:51.150Z,28.27
2017-09-26T18:08:19.528Z,27.60
2017-09-26T18:10:47.875Z,30.33
2017-09-26T18:13:16.952Z,27.27
2017-09-26T18:15:45.243Z,29.13
2017-09-26T18:18:13.756Z,28.20
2017-09-26T18:20:42.064Z,26.97
2017-09-26T18:23:10.521Z,26.57
2017-09-26T18:25:38.871Z,28.70
2017-09-26T18:28:07.176Z,27.10
2017-09-26T18:30:35.559Z,28.00
2017-09-26T18:33:03.940Z,28.33
2017-09-26T18:35:32.226Z,27.27
2017-09-26T18:38:00.564Z,28.43
2017-09-26T18:40:28.851Z,26.67
2017-09-26T18:42:57.184Z,29.90
2017-09-26T18:45:25.477Z,28.80
2017-09-26T18:47:53.784Z,28.80
2017-09-26T18:50:22.293Z,29.20
2017-09-26T18:52:50.700Z,32.33
2017-09-26T18:55:19.103Z,28.97
2017-09-26T18:57:47.447Z,30.57
2017-09-26T19:00:15.748Z,30.97
2017-09-26T19:02:44.799Z,33.37
2017-09-26T19:05:13.131Z,32.67
2017-09-26T19:07:41.424Z,31.90
2017-09-26T19:10:09.840Z,31.47
2017-09-26T19:12:38.163Z,28.57
2017-09-26T19:15:07.231Z,29.40
2017-09-26T19:17:35.746Z,29.00
2017-09-26T19:20:04.724Z,31.73
2017-09-26T19:22:33.979Z,31.00
2017-09-26T19:25:02.305Z,31.27
2017-09-26T19:27:31.392Z,32.60
2017-09-26T19:29:59.743Z,29.57
2017-09-26T19:32:28.036Z,28.57
2017-09-26T19:34:56.368Z,29.20
2017-09-26T19:37:25.452Z,30.77
2017-09-26T19:39:53.787Z,30.40
2017-09-26T19:42:22.853Z,29.33
2017-09-26T19:44:51.144Z,29.80
2017-09-26T19:47:19.580Z,31.53
2017-09-26T19:49:47.979Z,33.03
2017-09-26T19:52:16.323Z,33.13
2017-09-26T19:54:45.389Z,28.90
2017-09-26T19:57:13.681Z,29.00
2017-09-26T19:59:42.122Z,33.83
2017-09-26T20:02:10.497Z,30.83
2017-09-26T20:04:38.904Z,31.30
2017-09-26T20:07:07.412Z,30.07
2017-09-26T20:09:35.815Z,32.60
2017-09-26T20:12:04.300Z,31.83
2017-09-26T20:14:32.626Z,31.87
2017-09-26T20:17:01.744Z,32.77
2017-09-26T20:19:30.172Z,33.93
2017-09-26T20:22:00.120Z,31.83
2017-09-26T20:24:28.407Z,31.73
2017-09-26T20:26:56.807Z,35.23
2017-09-26T20:29:25.211Z,32.93
2017-09-26T20:31:53.681Z,34.07
2017-09-26T20:34:22.120Z,34.40
2017-09-26T20:36:50.455Z,32.80
2017-09-26T20:39:19.515Z,30.20
2017-09-26T20:41:47.840Z,32.53
2017-09-26T20:44:16.347Z,31.90
2017-09-26T20:46:44.644Z,37.40
2017-09-26T20:49:12.965Z,33.97
2017-09-26T20:51:41.304Z,35.93
2017-09-26T20:54:10.388Z,33.57
2017-09-26T20:56:38.680Z,34.47
2017-09-26T20:59:07.035Z,35.73
2017-09-26T21:01:35.389Z,34.43
2017-09-26T21:04:03.848Z,36.40
2017-09-26T21:06:32.174Z,35.80
2017-09-26T21:09:00.705Z,36.10
2017-09-26T21:11:30.516Z,36.13
2017-09-26T21:13:58.812Z,37.47
2017-09-26T21:16:27.244Z,35.70
2017-09-26T21:18:55.535Z,38.07
2017-09-26T21:21:23.860Z,33.40
2017-09-26T21:23:52.197Z,34.43
2017-09-26T21:26:20.536Z,36.30
2017-09-26T21:28:49.096Z,36.73
2017-09-26T21:31:17.464Z,35.83
2017-09-26T21:33:45.779Z,39.83
2017-09-26T21:36:15.585Z,36.93
2017-09-26T21:38:43.999Z,35.30
2017-09-26T21:41:12.407Z,37.03
2017-09-26T21:43:40.855Z,39.67
2017-09-26T21:46:09.999Z,36.63
2017-09-26T21:48:38.340Z,37.60
2017-09-26T21:51:06.852Z,42.70
2017-09-26T21:53:35.259Z,42.50
2017-09-26T21:56:03.668Z,38.43
2017-09-26T21:58:32.056Z,42.30
2017-09-26T22:01:00.459Z,38.67
2017-09-26T22:03:28.796Z,40.07
2017-09-26T22:05:57.855Z,40.20
2017-09-26T22:08:26.148Z,41.13
2017-09-26T22:10:54.617Z,40.40
2017-09-26T22:13:23.684Z,42.03
2017-09-26T22:15:52.021Z,40.17
2017-09-26T22:18:20.316Z,35.00
2017-09-26T22:20:48.719Z,42.10
2017-09-26T22:23:18.552Z,38.90
2017-09-26T22:25:46.955Z,40.93
2017-09-26T22:28:15.255Z,39.50
2017-09-26T22:30:43.659Z,43.33
2017-09-26T22:33:11.987Z,40.20
2017-09-26T22:35:40.327Z,44.27
2017-09-26T22:38:08.711Z,45.30
2017-09-26T22:40:37.163Z,46.30
2017-09-26T22:43:05.566Z,42.80
2017-09-26T22:45:33.964Z,43.90
2017-09-26T22:48:03.400Z,40.33
2017-09-26T22:50:31.723Z,42.77
2017-09-26T22:53:00.016Z,45.93
2017-09-26T22:55:28.348Z,48.70
2017-09-26T22:57:57.411Z,47.00
2017-09-26T23:00:25.769Z,44.50
2017-09-26T23:02:54.956Z,48.80
2017-09-26T23:05:23.264Z,44.70
2017-09-26T23:07:51.599Z,45.90
2017-09-26T23:10:20.664Z,45.40
2017-09-26T23:12:48.963Z,44.90
2017-09-26T23:15:17.286Z,44.50
2017-09-26T23:17:45.608Z,45.73
2017-09-26T23:20:13.999Z,45.70
2017-09-26T23:22:42.291Z,43.77
2017-09-26T23:25:10.647Z,44.30
2017-09-26T23:27:39.723Z,46.87
2017-09-26T23:30:08.214Z,45.33
2017-09-26T23:32:36.727Z,43.30
2017-09-26T23:35:06.079Z,43.83
2017-09-26T23:37:35.287Z,44.30
2017-09-26T23:40:03.619Z,43.63
2017-09-26T23:42:31.943Z,47.63
2017-09-26T23:45:00.292Z,43.93
2017-09-26T23:47:28.625Z,45.57
2017-09-26T23:49:57.720Z,43.47
2017-09-26T23:52:26.020Z,43.77
2017-09-26T23:54:54.355Z,45.03
2017-09-26T23:57:23.431Z,47.30
2017-09-26T23:59:51.759Z,46.97
